Time;durP1;ratioP1;P1;durP2;ratioP2;P2;SDS_P1;SDS_P2;PMS_P1;PMS_P2;Temp;Humidity;BMP_temperature;BMP_pressure;BME280_temperature;BME280_humidity;BME280_pressure;Samples;Min_cycle;Max_cycle;Signal;HPM_P1;HPM_P2
2023/03/27 00:02:06;;;;;;;;;;;;;;;2.64;100.00;99487.63;5035611;28;20338;-39
2023/03/27 00:04:31;;;;;;;;;;;;;;;2.67;100.00;99513.94;5038222;28;19916;-39
2023/03/27 00:06:58;;;;;;;;;;;;;;;2.79;100.00;99542.88;5041103;28;19912;-40
2023/03/27 00:09:24;;;;;;;;;;;;;;;2.96;100.00;99573.50;5041421;28;19948;-39
2023/03/27 00:11:49;;;;;;;;;;;;;;;2.81;100.00;99574.25;5040739;28;20454;-39
2023/03/27 00:14:15;;;;;;;;;;;;;;;3.00;100.00;99587.97;5040172;28;19928;-39
2023/03/27 00:16:40;;;;;;;;;;;;;;;2.86;100.00;99580.22;5040547;28;19998;-40
2023/03/27 00:19:05;;;;;;;;;;;;;;;2.67;100.00;99579.22;5039944;28;20058;-40
2023/03/27 00:21:30;;;;;;;;;;;;;;;2.88;100.00;99604.84;5040042;28;19920;-40
2023/03/27 00:23:56;;;;;;;;;;;;;;;2.75;100.00;99592.84;5038269;28;19936;-39
2023/03/27 00:26:21;;;;;;;;;;;;;;;2.86;100.00;99606.50;5040889;28;19917;-40
2023/03/27 00:28:46;;;;;;;;;;;;;;;2.75;100.00;99605.56;5039993;28;19923;-44
2023/03/27 00:31:12;;;;;;;;;;;;;;;2.88;100.00;99617.56;5039187;28;19916;-39
2023/03/27 00:33:37;;;;;;;;;;;;;;;2.77;100.00;99621.69;5040147;28;21010;-39
2023/03/27 00:36:03;;;;;;;;;;;;;;;2.67;100.00;99625.84;5040029;28;20633;-40
2023/03/27 00:38:28;;;;;;;;;;;;;;;2.59;100.00;99631.69;5040599;28;20510;-39
2023/03/27 00:40:54;;;;;;;;;;;;;;;2.60;100.00;99646.97;5040368;28;20420;-39
2023/03/27 00:43:41;;;;;;;;;;;;;;;2.43;100.00;99667.09;5039696;28;19939;-39
2023/03/27 00:46:06;;;;;;;;;;;;;;;2.46;100.00;99679.88;5039248;28;20380;-40
2023/03/27 00:48:32;;;;;;;;;;;;;;;2.41;100.00;99703.50;5039904;28;19921;-39
2023/03/27 00:50:57;;;;;;;;;;;;;;;2.46;100.00;99728.16;5040248;28;20400;-40
2023/03/27 00:53:25;;;;;;;;;;;;;;;2.43;100.00;99733.19;5040447;28;19917;-39
2023/03/27 00:55:52;;;;;;;;;;;;;;;2.51;100.00;99751.94;5038237;28;20530;-39
2023/03/27 00:58:19;;;;;;;;;;;;;;;2.47;100.00;99752.72;5038271;28;19925;-39
2023/03/27 01:00:45;;;;;;;;;;;;;;;2.38;100.00;99764.47;5038708;28;19916;-39
2023/03/27 01:03:10;;;;;;;;;;;;;;;2.77;100.00;99796.34;5036782;28;19917;-40
2023/03/27 01:05:36;;;;;;;;;;;;;;;2.59;100.00;99784.25;5032631;28;19951;-40
2023/03/27 01:08:02;;;;;;;;;;;;;;;2.70;100.00;99792.84;5036555;28;20344;-40
2023/03/27 01:10:48;;;;;;;;;;;;;;;2.75;100.00;99791.22;5035930;28;19963;-40
2023/03/27 01:13:39;;;;;;;;;;;;;;;2.76;100.00;99781.88;5015931;28;20099;-40
2023/03/27 01:16:04;;;;;;;;;;;;;;;2.91;100.00;99780.38;5017498;28;20140;-40
2023/03/27 01:18:59;;;;;;;;;;;;;;;2.88;100.00;99771.88;5035510;28;19927;-40
2023/03/27 01:21:24;;;;;;;;;;;;;;;2.65;100.00;99759.75;5023639;28;19970;-40
2023/03/27 01:24:08;;;;;;;;;;;;;;;2.63;100.00;99747.84;5036440;28;19921;-40
2023/03/27 01:26:36;;;;;;;;;;;;;;;2.68;100.00;99743.66;5036295;28;19920;-40
2023/03/27 01:29:21;;;;;;;;;;;;;;;2.53;100.00;99751.94;5037013;28;20201;-40
2023/03/27 01:31:55;;;;;;;;;;;;;;;2.58;100.00;99768.13;5036973;28;19959;-40
2023/03/27 01:34:26;;;;;;;;;;;;;;;2.55;100.00;99769.78;5035779;28;19921;-40
2023/03/27 01:37:05;;;;;;;;;;;;;;;2.46;100.00;99765.41;5034876;28;19921;-40
2023/03/27 01:39:43;;;;;;;;;;;;;;;2.48;100.00;99784.94;5036480;28;20769;-40
2023/03/27 01:42:32;;;;;;;;;;;;;;;2.40;100.00;99784.00;5034672;28;20409;-39
2023/03/27 01:44:57;;;;;;;;;;;;;;;2.47;100.00;99795.94;5004203;28;20398;-40
2023/03/27 01:47:25;;;;;;;;;;;;;;;2.67;100.00;99808.94;5036958;28;19940;-39
2023/03/27 01:49:52;;;;;;;;;;;;;;;2.38;100.00;99800.06;5035211;28;20259;-41
2023/03/27 01:52:17;;;;;;;;;;;;;;;2.55;100.00;99813.84;5036619;28;19921;-41
2023/03/27 01:54:45;;;;;;;;;;;;;;;2.26;100.00;99805.84;5016859;28;20384;-41
2023/03/27 01:57:21;;;;;;;;;;;;;;;2.37;100.00;99824.59;5035078;28;20257;-40
2023/03/27 01:59:48;;;;;;;;;;;;;;;2.41;100.00;99836.53;5034118;28;19928;-41
2023/03/27 02:02:18;;;;;;;;;;;;;;;2.39;100.00;99848.38;5035936;28;20413;-41
2023/03/27 02:04:45;;;;;;;;;;;;;;;2.48;100.00;99852.72;5033687;28;20444;-41
2023/03/27 02:07:11;;;;;;;;;;;;;;;2.36;100.00;99850.03;5035077;28;19916;-41
2023/03/27 02:09:41;;;;;;;;;;;;;;;2.14;100.00;99851.38;5033858;28;20004;-41
2023/03/27 02:12:07;;;;;;;;;;;;;;;2.12;100.00;99858.97;5034854;28;19916;-41
2023/03/27 02:14:37;;;;;;;;;;;;;;;2.02;100.00;99877.44;5016236;28;19947;-41
2023/03/27 02:17:06;;;;;;;;;;;;;;;2.21;100.00;99924.31;5033238;28;20091;-41
2023/03/27 02:19:34;;;;;;;;;;;;;;;2.01;100.00;99916.41;5034229;28;19971;-41
2023/03/27 02:21:59;;;;;;;;;;;;;;;2.13;100.00;99938.59;5036151;28;20411;-41
2023/03/27 02:24:24;;;;;;;;;;;;;;;2.05;100.00;99954.56;5034143;28;19963;-41
2023/03/27 02:26:51;;;;;;;;;;;;;;;2.06;100.00;99963.06;5034950;28;19923;-41
2023/03/27 02:29:33;;;;;;;;;;;;;;;2.11;100.00;99979.22;5034497;28;19956;-40
2023/03/27 02:32:27;;;;;;;;;;;;;;;2.00;100.00;99986.66;5035819;28;19921;-41
2023/03/27 02:35:14;;;;;;;;;;;;;;;2.11;100.00;100007.19;5025233;28;19929;-41
2023/03/27 02:37:42;;;;;;;;;;;;;;;2.02;100.00;100024.78;5024345;28;20506;-41
2023/03/27 02:40:09;;;;;;;;;;;;;;;2.20;100.00;100049.69;5034055;28;19917;-41
2023/03/27 02:42:50;;;;;;;;;;;;;;;2.24;100.00;100061.63;5034233;28;20468;-41
2023/03/27 02:45:23;;;;;;;;;;;;;;;2.25;100.00;100073.50;5032384;28;19956;-41
2023/03/27 02:47:53;;;;;;;;;;;;;;;2.42;100.00;100087.41;5033475;28;19920;-41
2023/03/27 02:50:19;;;;;;;;;;;;;;;2.44;100.00;100079.78;5034695;28;19921;-41
2023/03/27 02:52:46;;;;;;;;;;;;;;;2.12;100.00;100067.31;5034101;28;20369;-41
2023/03/27 02:55:16;;;;;;;;;;;;;;;2.35;100.00;100095.75;5034110;28;19984;-41
2023/03/27 02:57:42;;;;;;;;;;;;;;;2.30;100.00;100099.84;5033717;28;20531;-41
2023/03/27 03:00:19;;;;;;;;;;;;;;;2.14;100.00;100092.78;5032982;28;20596;-41
2023/03/27 03:02:44;;;;;;;;;;;;;;;2.26;100.00;100111.66;5033512;28;19960;-41
2023/03/27 03:05:11;;;;;;;;;;;;;;;2.20;100.00;100115.78;5032278;28;19962;-41
2023/03/27 03:07:37;;;;;;;;;;;;;;;2.19;100.00;100129.28;5033665;28;19924;-41
2023/03/27 03:10:07;;;;;;;;;;;;;;;1.93;100.00;100137.25;5035171;28;19920;-41
2023/03/27 03:12:32;;;;;;;;;;;;;;;2.01;100.00;100150.97;5034985;28;20118;-41
2023/03/27 03:14:57;;;;;;;;;;;;;;;1.80;100.00;100163.19;5033796;28;19924;-41
2023/03/27 03:17:22;;;;;;;;;;;;;;;2.08;100.00;100196.00;5034556;28;20542;-41
2023/03/27 03:19:48;;;;;;;;;;;;;;;2.10;100.00;100206.22;5034643;28;20008;-41
2023/03/27 03:22:13;;;;;;;;;;;;;;;1.98;100.00;100216.94;5035198;28;20028;-41
2023/03/27 03:24:40;;;;;;;;;;;;;;;2.01;100.00;100229.72;5033571;28;19921;-41
2023/03/27 03:27:07;;;;;;;;;;;;;;;1.87;100.00;100229.41;5034430;28;19963;-41
2023/03/27 03:29:35;;;;;;;;;;;;;;;2.08;100.00;100249.38;5035198;28;19916;-41
2023/03/27 03:32:01;;;;;;;;;;;;;;;2.10;100.00;100272.28;5034542;28;20424;-41
2023/03/27 03:34:26;;;;;;;;;;;;;;;2.09;100.00;100275.63;5033453;28;19921;-41
2023/03/27 03:36:53;;;;;;;;;;;;;;;2.19;100.00;100282.66;5034690;28;19924;-41
2023/03/27 03:39:19;;;;;;;;;;;;;;;2.35;100.00;100296.56;5036546;28;19921;-41
2023/03/27 03:41:44;;;;;;;;;;;;;;;2.23;100.00;100288.63;5037726;28;19975;-41
2023/03/27 03:44:09;;;;;;;;;;;;;;;2.00;100.00;100286.44;5035211;28;20357;-41
2023/03/27 03:46:35;;;;;;;;;;;;;;;2.16;100.00;100281.72;5037372;28;19921;-41
2023/03/27 03:49:00;;;;;;;;;;;;;;;2.53;100.00;100297.75;5038293;28;19962;-41
2023/03/27 03:51:27;;;;;;;;;;;;;;;2.29;100.00;100276.06;5038471;28;20164;-41
2023/03/27 03:53:52;;;;;;;;;;;;;;;2.51;100.00;100279.94;5035409;28;20336;-40
2023/03/27 03:56:17;;;;;;;;;;;;;;;2.53;100.00;100272.34;5035034;28;19921;-40
2023/03/27 03:58:42;;;;;;;;;;;;;;;2.26;100.00;100254.00;5038196;28;19967;-41
2023/03/27 04:01:09;;;;;;;;;;;;;;;2.49;100.00;100263.81;5037463;28;19925;-41
2023/03/27 04:03:34;;;;;;;;;;;;;;;2.92;100.00;100277.41;5038808;28;20130;-41
2023/03/27 04:06:00;;;;;;;;;;;;;;;2.65;100.00;100240.41;5036506;28;19974;-41
2023/03/27 04:08:26;;;;;;;;;;;;;;;2.36;100.00;100209.28;5037721;28;19966;-41
2023/03/27 04:10:51;;;;;;;;;;;;;;;2.27;100.00;100201.47;5036353;28;19975;-40
2023/03/27 04:13:16;;;;;;;;;;;;;;;2.63;100.00;100218.31;5037432;28;19967;-40
2023/03/27 04:15:42;;;;;;;;;;;;;;;2.64;100.00;100220.00;5037500;28;20370;-41
2023/03/27 04:18:07;;;;;;;;;;;;;;;2.15;100.00;100178.34;5038603;28;20731;-40
2023/03/27 04:20:33;;;;;;;;;;;;;;;2.12;100.00;100183.34;5037068;28;19921;-40
2023/03/27 04:23:01;;;;;;;;;;;;;;;2.20;100.00;100199.63;5037482;28;19932;-41
2023/03/27 04:25:27;;;;;;;;;;;;;;;2.15;100.00;100208.84;5038624;28;19916;-40
2023/03/27 04:27:52;;;;;;;;;;;;;;;2.11;100.00;100232.47;5038861;28;19966;-40
2023/03/27 04:30:21;;;;;;;;;;;;;;;2.14;100.00;100253.72;5040761;28;20532;-40
2023/03/27 04:32:46;;;;;;;;;;;;;;;2.40;100.00;100281.41;5040218;28;19920;-40
2023/03/27 04:35:11;;;;;;;;;;;;;;;2.57;100.00;100307.19;5039382;28;20301;-40
2023/03/27 04:37:40;;;;;;;;;;;;;;;2.65;100.00;100308.22;5039942;28;19921;-40
2023/03/27 04:40:06;;;;;;;;;;;;;;;2.30;100.00;100301.53;5040303;28;19917;-40
2023/03/27 04:42:31;;;;;;;;;;;;;;;2.34;100.00;100320.25;5038966;28;19917;-40
2023/03/27 04:44:56;;;;;;;;;;;;;;;2.23;100.00;100321.69;5036672;28;20408;-40
2023/03/27 04:47:22;;;;;;;;;;;;;;;2.33;100.00;100336.34;5040401;28;19962;-40
2023/03/27 04:49:49;;;;;;;;;;;;;;;2.45;100.00;100346.78;5038990;28;19986;-40
2023/03/27 04:52:15;;;;;;;;;;;;;;;2.85;100.00;100378.19;5039942;28;19916;-40
2023/03/27 04:54:40;;;;;;;;;;;;;;;2.32;100.00;100338.84;5038370;28;19932;-40
2023/03/27 04:57:06;;;;;;;;;;;;;;;2.28;100.00;100348.06;5038269;28;20456;-40
2023/03/27 04:59:32;;;;;;;;;;;;;;;2.80;100.00;100373.81;5039859;28;19920;-40
2023/03/27 05:01:57;;;;;;;;;;;;;;;2.09;100.00;100337.47;5039794;28;19943;-40
2023/03/27 05:04:25;;;;;;;;;;;;;;;1.96;100.00;100343.09;5039713;28;19951;-40
2023/03/27 05:06:51;;;;;;;;;;;;;;;2.17;100.00;100364.75;5038933;28;19917;-40
2023/03/27 05:09:16;;;;;;;;;;;;;;;1.85;100.00;100369.91;5038963;28;19940;-40
2023/03/27 05:11:43;;;;;;;;;;;;;;;1.99;100.00;100383.81;5039703;28;19917;-41
2023/03/27 05:14:08;;;;;;;;;;;;;;;2.37;100.00;100414.38;5038020;28;20453;-40
2023/03/27 05:16:34;;;;;;;;;;;;;;;2.30;100.00;100412.50;5038363;28;19923;-40
2023/03/27 05:19:02;;;;;;;;;;;;;;;1.83;100.00;100387.66;5038108;28;19921;-40
2023/03/27 05:21:27;;;;;;;;;;;;;;;2.00;100.00;100413.47;5038136;28;19967;-40
2023/03/27 05:23:52;;;;;;;;;;;;;;;2.01;100.00;100443.16;5038555;28;20393;-40
2023/03/27 05:26:17;;;;;;;;;;;;;;;1.94;100.00;100443.81;5038135;28;21018;-40
2023/03/27 05:28:43;;;;;;;;;;;;;;;1.88;100.00;100459.75;5039694;28;20345;-41
2023/03/27 05:31:09;;;;;;;;;;;;;;;1.90;100.00;100467.41;5039390;28;19927;-40
2023/03/27 05:33:34;;;;;;;;;;;;;;;2.12;100.00;100488.28;5039459;28;20022;-40
2023/03/27 05:36:03;;;;;;;;;;;;;;;1.85;100.00;100472.38;5037709;28;19920;-40
2023/03/27 05:38:28;;;;;;;;;;;;;;;1.95;100.00;100503.97;5039690;28;20292;-40
2023/03/27 05:40:53;;;;;;;;;;;;;;;1.93;100.00;100508.13;5038886;28;19913;-40
2023/03/27 05:43:19;;;;;;;;;;;;;;;1.94;100.00;100514.94;5039094;28;19997;-40
2023/03/27 05:45:44;;;;;;;;;;;;;;;1.86;100.00;100518.94;5036734;28;19917;-40
2023/03/27 05:48:09;;;;;;;;;;;;;;;1.78;100.00;100522.94;5039086;28;19927;-40
2023/03/27 05:50:35;;;;;;;;;;;;;;;2.11;100.00;100542.50;5038834;28;20011;-40
2023/03/27 05:53:01;;;;;;;;;;;;;;;1.96;100.00;100543.81;5037405;28;19955;-40
2023/03/27 05:55:27;;;;;;;;;;;;;;;2.21;100.00;100564.78;5034600;28;19917;-40
2023/03/27 05:57:52;;;;;;;;;;;;;;;2.14;100.00;100562.91;5035911;28;19957;-40
2023/03/27 06:00:23;;;;;;;;;;;;;;;2.17;100.00;100573.16;5035908;28;20019;-40
2023/03/27 06:02:49;;;;;;;;;;;;;;;2.19;100.00;100566.41;5035295;28;19995;-40
2023/03/27 06:05:14;;;;;;;;;;;;;;;2.15;100.00;100572.25;5034818;28;20413;-40
2023/03/27 06:07:40;;;;;;;;;;;;;;;2.26;100.00;100583.59;5035315;28;20289;-40
2023/03/27 06:10:06;;;;;;;;;;;;;;;2.32;100.00;100588.81;5034318;28;19935;-40
2023/03/27 06:12:32;;;;;;;;;;;;;;;2.55;100.00;100597.03;5035519;28;19917;-40
2023/03/27 06:14:58;;;;;;;;;;;;;;;2.44;100.00;100589.16;5035005;28;20839;-40
2023/03/27 06:17:23;;;;;;;;;;;;;;;2.65;100.00;100599.03;5036035;28;19917;-40
2023/03/27 06:19:48;;;;;;;;;;;;;;;2.54;100.00;100582.63;5035341;28;20216;-40
2023/03/27 06:22:13;;;;;;;;;;;;;;;2.76;100.00;100601.84;5034799;28;19919;-40
2023/03/27 06:24:38;;;;;;;;;;;;;;;2.71;100.00;100603.38;5035092;28;19949;-40
2023/03/27 06:27:04;;;;;;;;;;;;;;;2.84;100.00;100607.97;5034636;28;19967;-40
2023/03/27 06:29:29;;;;;;;;;;;;;;;2.85;100.00;100594.44;5035923;28;19948;-40
2023/03/27 06:31:57;;;;;;;;;;;;;;;2.66;100.00;100587.16;5034965;28;19963;-40
2023/03/27 06:34:22;;;;;;;;;;;;;;;2.72;100.00;100600.03;5037456;28;19931;-40
2023/03/27 06:36:48;;;;;;;;;;;;;;;2.88;100.00;100612.31;5038468;28;19921;-40
2023/03/27 06:39:14;;;;;;;;;;;;;;;2.70;100.00;100601.69;5038455;28;19927;-40
2023/03/27 06:41:39;;;;;;;;;;;;;;;2.84;100.00;100610.50;5038168;28;19913;-40
2023/03/27 06:44:04;;;;;;;;;;;;;;;2.72;100.00;100616.16;5035708;28;19917;-40
2023/03/27 06:46:30;;;;;;;;;;;;;;;2.49;100.00;100602.84;5036735;28;20394;-40
2023/03/27 06:48:55;;;;;;;;;;;;;;;2.56;100.00;100625.91;5038366;28;19952;-39
2023/03/27 06:51:21;;;;;;;;;;;;;;;2.83;100.00;100649.50;5038457;28;19978;-40
2023/03/27 06:53:48;;;;;;;;;;;;;;;2.71;100.00;100652.59;5038259;28;19917;-40
2023/03/27 06:56:13;;;;;;;;;;;;;;;2.39;100.00;100651.72;5037392;28;19917;-40
2023/03/27 06:58:38;;;;;;;;;;;;;;;2.29;100.00;100660.78;5038467;28;19916;-40
2023/03/27 07:01:04;;;;;;;;;;;;;;;2.12;100.00;100664.50;5037621;28;20007;-40
2023/03/27 07:03:29;;;;;;;;;;;;;;;2.35;100.00;100700.78;5036316;28;19913;-40
2023/03/27 07:05:54;;;;;;;;;;;;;;;2.41;100.00;100715.31;5037190;28;19928;-40
2023/03/27 07:08:20;;;;;;;;;;;;;;;2.68;100.00;100746.63;5038363;28;19952;-40
2023/03/27 07:10:45;;;;;;;;;;;;;;;2.51;100.00;100753.78;5036011;28;19921;-40
2023/03/27 07:13:11;;;;;;;;;;;;;;;2.48;100.00;100757.91;5037380;28;19975;-40
2023/03/27 07:15:37;;;;;;;;;;;;;;;3.04;100.00;100806.13;5036743;28;19916;-40
2023/03/27 07:18:03;;;;;;;;;;;;;;;3.19;100.00;100811.63;5036943;28;19928;-40
2023/03/27 07:20:29;;;;;;;;;;;;;;;3.14;100.00;100803.00;5037367;28;20400;-40
2023/03/27 07:22:56;;;;;;;;;;;;;;;3.50;100.00;100832.81;5037113;28;19917;-39
2023/03/27 07:25:21;;;;;;;;;;;;;;;3.43;100.00;100823.31;5036835;28;19923;-39
2023/03/27 07:27:46;;;;;;;;;;;;;;;3.48;100.00;100835.31;5037908;28;19914;-39
2023/03/27 07:30:12;;;;;;;;;;;;;;;3.59;100.00;100833.06;5037021;28;20003;-39
2023/03/27 07:32:38;;;;;;;;;;;;;;;3.24;100.00;100809.19;5038376;28;19912;-39
2023/03/27 07:35:06;;;;;;;;;;;;;;;3.20;100.00;100817.59;5036288;28;20366;-40
2023/03/27 07:37:31;;;;;;;;;;;;;;;3.50;100.00;100833.69;5033744;28;19920;-39
2023/03/27 07:39:56;;;;;;;;;;;;;;;3.07;100.00;100806.22;5033528;28;20408;-39
2023/03/27 07:42:21;;;;;;;;;;;;;;;3.67;100.00;100854.53;5034020;28;19916;-39
2023/03/27 07:44:47;;;;;;;;;;;;;;;3.78;100.00;100855.63;5030871;28;19939;-39
2023/03/27 07:47:12;;;;;;;;;;;;;;;3.90;100.00;100856.75;5033743;28;19923;-39
2023/03/27 07:49:37;;;;;;;;;;;;;;;3.82;100.00;100853.19;5034350;28;19921;-39
2023/03/27 07:52:03;;;;;;;;;;;;;;;3.89;100.00;100843.16;5034125;28;19917;-39
2023/03/27 07:54:30;;;;;;;;;;;;;;;3.90;100.00;100844.91;5035346;28;19921;-39
2023/03/27 07:56:55;;;;;;;;;;;;;;;4.03;100.00;100851.16;5034728;28;19916;-39
2023/03/27 07:59:21;;;;;;;;;;;;;;;3.88;100.00;100821.06;5033897;28;19940;-40
2023/03/27 08:01:49;;;;;;;;;;;;;;;4.35;100.00;100833.19;5033429;28;19917;-39
2023/03/27 08:04:15;;;;;;;;;;;;;;;4.65;100.00;100832.16;5033750;28;20344;-40
2023/03/27 08:06:41;;;;;;;;;;;;;;;4.47;100.00;100795.22;5035419;28;19920;-40
2023/03/27 08:09:07;;;;;;;;;;;;;;;4.53;100.00;100779.16;5035088;28;20434;-39
2023/03/27 08:11:32;;;;;;;;;;;;;;;4.99;100.00;100780.94;5034834;28;19942;-40
2023/03/27 08:13:58;;;;;;;;;;;;;;;4.51;100.00;100737.44;5034591;28;19927;-39
2023/03/27 08:16:26;;;;;;;;;;;;;;;4.96;100.00;100734.09;5035010;28;20175;-40
2023/03/27 08:18:52;;;;;;;;;;;;;;;4.84;100.00;100701.53;5035707;28;20092;-40
2023/03/27 08:21:17;;;;;;;;;;;;;;;4.98;100.00;100674.56;5035150;28;19964;-39
2023/03/27 08:23:42;;;;;;;;;;;;;;;4.36;100.00;100616.44;5034652;28;19916;-40
2023/03/27 08:26:07;;;;;;;;;;;;;;;4.87;100.00;100636.91;5037365;28;20411;-40
2023/03/27 08:28:33;;;;;;;;;;;;;;;5.24;100.00;100625.59;5038201;28;20374;-40
2023/03/27 08:30:59;;;;;;;;;;;;;;;5.45;100.00;100610.63;5037982;28;19928;-40
2023/03/27 08:33:26;;;;;;;;;;;;;;;4.93;100.00;100543.41;5036614;28;20007;-40
2023/03/27 08:35:51;;;;;;;;;;;;;;;5.11;100.00;100534.31;5036503;28;20201;-40
2023/03/27 08:38:17;;;;;;;;;;;;;;;4.94;100.00;100509.38;5038436;28;19913;-40
2023/03/27 08:40:49;;;;;;;;;;;;;;;4.81;100.00;100479.41;5037111;28;19913;-40
2023/03/27 08:43:19;;;;;;;;;;;;;;;4.49;100.00;100449.13;5036255;28;19928;-40
2023/03/27 08:45:44;;;;;;;;;;;;;;;4.42;100.00;100452.44;5034356;28;19979;-40
2023/03/27 08:48:12;;;;;;;;;;;;;;;4.46;100.00;100461.84;5037153;28;20667;-40
2023/03/27 08:50:40;;;;;;;;;;;;;;;5.06;100.00;100500.19;5036544;28;19920;-40
2023/03/27 08:53:06;;;;;;;;;;;;;;;5.21;100.00;100491.06;5036040;28;19924;-40
2023/03/27 08:55:41;;;;;;;;;;;;;;;4.89;100.00;100457.41;5036533;28;20289;-40
2023/03/27 08:58:18;;;;;;;;;;;;;;;5.16;100.00;100479.94;5035415;28;20285;-40
2023/03/27 09:00:43;;;;;;;;;;;;;;;5.76;100.00;100483.22;5036152;28;20313;-40
2023/03/27 09:03:08;;;;;;;;;;;;;;;5.55;100.00;100437.84;5035353;28;19924;-40
2023/03/27 09:05:33;;;;;;;;;;;;;;;5.47;100.00;100377.25;5036452;28;20184;-40
2023/03/27 09:08:28;;;;;;;;;;;;;;;4.79;100.00;100310.09;5036590;28;19913;-40
2023/03/27 09:11:02;;;;;;;;;;;;;;;4.69;100.00;100273.38;5023757;28;19920;-40
2023/03/27 09:13:29;;;;;;;;;;;;;;;5.12;100.00;100262.81;5036293;28;19917;-40
2023/03/27 09:15:55;;;;;;;;;;;;;;;5.26;100.00;100222.94;5035950;28;19921;-40
2023/03/27 09:18:27;;;;;;;;;;;;;;;4.77;100.00;100168.88;5037625;28;19927;-40
2023/03/27 09:20:54;;;;;;;;;;;;;;;5.90;100.00;100224.28;5037004;28;19917;-40
2023/03/27 09:23:34;;;;;;;;;;;;;;;5.57;100.00;100159.34;5035564;28;20435;-40
2023/03/27 09:26:01;;;;;;;;;;;;;;;5.73;100.00;100134.75;5034635;28;19916;-40
2023/03/27 09:28:28;;;;;;;;;;;;;;;6.90;100.00;100151.38;5035820;28;19956;-40
2023/03/27 09:30:54;;;;;;;;;;;;;;;6.03;100.00;100081.22;5036596;28;20392;-40
2023/03/27 09:33:20;;;;;;;;;;;;;;;5.66;100.00;100037.56;5035687;28;19916;-40
2023/03/27 09:35:45;;;;;;;;;;;;;;;5.41;100.00;100021.28;5035392;28;19967;-40
2023/03/27 09:38:22;;;;;;;;;;;;;;;5.75;100.00;100057.22;5037018;28;19917;-40
2023/03/27 09:40:58;;;;;;;;;;;;;;;6.48;100.00;100078.81;5036757;28;19920;-40
2023/03/27 09:43:28;;;;;;;;;;;;;;;6.79;100.00;100022.50;5034021;28;19916;-40
2023/03/27 09:45:53;;;;;;;;;;;;;;;5.87;100.00;99949.88;5033816;28;20011;-40
2023/03/27 09:48:38;;;;;;;;;;;;;;;5.38;100.00;99896.09;5034549;28;19952;-40
2023/03/27 09:51:04;;;;;;;;;;;;;;;5.34;100.00;99884.16;5028699;28;19913;-40
2023/03/27 09:53:29;;;;;;;;;;;;;;;5.46;100.00;99880.78;5035075;28;19935;-40
2023/03/27 09:55:55;;;;;;;;;;;;;;;5.42;100.00;99831.38;5035176;28;19920;-40
2023/03/27 09:58:30;;;;;;;;;;;;;;;5.42;100.00;99813.50;5035737;28;19944;-40
2023/03/27 10:01:12;;;;;;;;;;;;;;;5.60;100.00;99802.47;5036115;28;19923;-40
2023/03/27 10:03:47;;;;;;;;;;;;;;;5.98;100.00;99796.53;5036728;28;19916;-40
2023/03/27 10:06:13;;;;;;;;;;;;;;;5.75;100.00;99770.97;5034429;28;20425;-40
2023/03/27 10:08:44;;;;;;;;;;;;;;;5.33;100.00;99772.63;5036621;28;19920;-40
2023/03/27 10:11:14;;;;;;;;;;;;;;;5.51;100.00;99781.16;5036110;28;19956;-40
2023/03/27 10:13:42;;;;;;;;;;;;;;;5.23;100.00;99768.34;5036892;28;19970;-40
2023/03/27 10:16:07;;;;;;;;;;;;;;;5.45;100.00;99756.44;5035982;28;19982;-40
2023/03/27 10:18:33;;;;;;;;;;;;;;;6.05;100.00;99724.09;5036493;28;20417;-40
2023/03/27 10:21:00;;;;;;;;;;;;;;;6.19;100.00;99660.13;5033741;28;19913;-40
2023/03/27 10:23:26;;;;;;;;;;;;;;;5.74;100.00;99621.00;5036619;28;20433;-40
2023/03/27 10:25:52;;;;;;;;;;;;;;;5.67;100.00;99598.88;5034816;28;20008;-40
2023/03/27 10:28:17;;;;;;;;;;;;;;;5.43;100.00;99582.78;5035163;28;19952;-40
2023/03/27 10:30:42;;;;;;;;;;;;;;;5.22;100.00;99621.09;5035881;28;20096;-40
2023/03/27 10:33:08;;;;;;;;;;;;;;;4.98;100.00;99678.94;5033507;28;19920;-40
2023/03/27 10:35:34;;;;;;;;;;;;;;;5.17;100.00;99720.66;5033098;28;20011;-40
2023/03/27 10:38:00;;;;;;;;;;;;;;;6.61;100.00;99796.41;5035315;28;19917;-39
2023/03/27 10:40:25;;;;;;;;;;;;;;;7.82;100.00;99853.88;5035224;28;19917;-40
2023/03/27 10:42:53;;;;;;;;;;;;;;;6.59;100.00;99767.44;5034361;28;20480;-40
2023/03/27 10:45:19;;;;;;;;;;;;;;;7.06;100.00;99774.03;5031380;28;20382;-40
2023/03/27 10:47:45;;;;;;;;;;;;;;;6.35;100.00;99701.84;5033361;28;19923;-40
2023/03/27 10:50:29;;;;;;;;;;;;;;;6.33;100.00;99698.44;5035355;28;19916;-40
2023/03/27 10:53:13;;;;;;;;;;;;;;;5.94;100.00;99632.91;5036034;28;20034;-40
2023/03/27 10:55:47;;;;;;;;;;;;;;;5.89;100.00;99642.31;5034985;28;20002;-40
2023/03/27 10:58:19;;;;;;;;;;;;;;;5.91;100.00;99641.44;5034748;28;20235;-40
2023/03/27 11:00:46;;;;;;;;;;;;;;;6.40;100.00;99637.88;5034331;28;20286;-40
2023/03/27 11:03:29;;;;;;;;;;;;;;;6.46;100.00;99619.94;5034042;28;19927;-40
2023/03/27 11:05:54;;;;;;;;;;;;;;;6.40;100.00;99596.94;5035033;28;20158;-40
2023/03/27 11:08:21;;;;;;;;;;;;;;;6.51;100.00;99559.34;5034224;28;19920;-40
2023/03/27 11:10:46;;;;;;;;;;;;;;;7.15;100.00;99546.91;5034414;28;20364;-40
2023/03/27 11:13:21;;;;;;;;;;;;;;;7.13;100.00;99493.97;5034133;28;19916;-40
2023/03/27 11:15:55;;;;;;;;;;;;;;;7.25;100.00;99446.03;5033433;28;20842;-40
2023/03/27 11:18:21;;;;;;;;;;;;;;;7.78;100.00;99444.53;5033944;28;20389;-40
2023/03/27 11:20:50;;;;;;;;;;;;;;;7.41;100.00;99398.00;5034517;28;20139;-40
2023/03/27 11:23:18;;;;;;;;;;;;;;;7.12;100.00;99342.88;5033807;28;20049;-40
2023/03/27 11:25:45;;;;;;;;;;;;;;;7.05;100.00;99308.81;5034596;28;20378;-40
2023/03/27 11:28:31;;;;;;;;;;;;;;;6.73;100.00;99282.75;5034161;28;20022;-40
2023/03/27 11:31:02;;;;;;;;;;;;;;;7.73;100.00;99265.13;5027234;28;19916;-40
2023/03/27 11:33:31;;;;;;;;;;;;;;;6.53;100.00;99232.66;5033693;28;19917;-40
2023/03/27 11:36:14;;;;;;;;;;;;;;;7.24;100.00;99217.19;5034461;28;19921;-40
2023/03/27 11:38:41;;;;;;;;;;;;;;;7.28;100.00;99216.28;5035153;28;20126;-40
2023/03/27 11:41:09;;;;;;;;;;;;;;;7.36;100.00;99187.97;5034208;28;19916;-40
2023/03/27 11:43:34;;;;;;;;;;;;;;;7.69;100.00;99196.00;5033214;28;19928;-40
2023/03/27 11:46:22;;;;;;;;;;;;;;;8.53;100.00;99202.16;5032397;28;20278;-40
2023/03/27 11:48:59;;;;;;;;;;;;;;;7.80;100.00;99198.34;5033770;28;20002;-40
2023/03/27 11:51:27;;;;;;;;;;;;;;;8.35;100.00;99164.84;5035196;28;20083;-40
2023/03/27 11:54:12;;;;;;;;;;;;;;;8.12;100.00;99123.41;5035743;28;19952;-40
2023/03/27 11:56:50;;;;;;;;;;;;;;;8.07;100.00;99150.84;5033747;28;20024;-40
2023/03/27 11:59:15;;;;;;;;;;;;;;;7.41;100.00;99124.72;5034623;28;19917;-40
2023/03/27 12:01:43;;;;;;;;;;;;;;;7.64;100.00;99118.31;5038341;28;19939;-40
2023/03/27 12:04:09;;;;;;;;;;;;;;;7.17;100.00;99100.34;5036297;28;19916;-40
2023/03/27 12:06:40;;;;;;;;;;;;;;;7.49;100.00;99099.78;5038114;28;20507;-40
2023/03/27 12:09:11;;;;;;;;;;;;;;;7.70;100.00;99111.38;5037218;28;19939;-40
2023/03/27 12:11:38;;;;;;;;;;;;;;;7.22;100.00;99105.41;5038913;28;20197;-40
2023/03/27 12:14:06;;;;;;;;;;;;;;;7.03;100.00;99082.66;5036879;28;19958;-40
2023/03/27 12:16:43;;;;;;;;;;;;;;;8.10;100.00;99073.84;5038215;28;20392;-40
2023/03/27 12:19:23;;;;;;;;;;;;;;;7.65;100.00;99086.69;5038786;28;19921;-39
2023/03/27 12:21:57;;;;;;;;;;;;;;;8.22;100.00;99093.28;5038586;28;20954;-39
2023/03/27 12:24:41;;;;;;;;;;;;;;;8.30;100.00;99102.50;5036742;28;20059;-40
2023/03/27 12:27:24;;;;;;;;;;;;;;;7.64;100.00;99113.19;5037844;28;19927;-40
2023/03/27 12:30:08;;;;;;;;;;;;;;;7.87;100.00;99134.13;5038069;28;19920;-40
2023/03/27 12:32:36;;;;;;;;;;;;;;;8.22;100.00;99124.06;5038452;28;20008;-40
2023/03/27 12:35:09;;;;;;;;;;;;;;;8.42;100.00;99131.38;5036538;28;19924;-40
2023/03/27 12:37:43;;;;;;;;;;;;;;;8.69;100.00;99150.44;5035621;28;19955;-42
2023/03/27 12:40:32;;;;;;;;;;;;;;;7.59;100.00;99140.63;5036134;28;20163;-40
2023/03/27 12:43:09;;;;;;;;;;;;;;;7.96;100.00;99164.72;5009654;28;19999;-40
2023/03/27 12:45:34;;;;;;;;;;;;;;;7.23;100.00;99168.53;5034471;28;19936;-40
2023/03/27 12:48:08;;;;;;;;;;;;;;;6.69;100.00;99190.66;5038177;28;19924;-39